sensor_id;sensor_type;location;lat;lon;timestamp;pressure;altitude;pressure_sealevel;temperature;humidity
31082;BME280;17737;52.586;13.284;2023-04-29T00:01:12;100497.22;;;12.41;72.44
31082;BME280;17737;52.586;13.284;2023-04-29T00:03:40;100480.06;;;12.48;72.36
31082;BME280;17737;52.586;13.284;2023-04-29T00:06:08;100480.06;;;12.48;72.14
31082;BME280;17737;52.586;13.284;2023-04-29T00:08:37;100475.81;;;12.39;72.60
31082;BME280;17737;52.586;13.284;2023-04-29T00:11:05;100469.56;;;12.39;72.75
31082;BME280;17737;52.586;13.284;2023-04-29T00:13:33;100459.19;;;12.71;71.45
31082;BME280;17737;52.586;13.284;2023-04-29T00:16:01;100462.09;;;12.41;72.21
31082;BME280;17737;52.586;13.284;2023-04-29T00:18:30;100462.03;;;12.34;72.51
31082;BME280;17737;52.586;13.284;2023-04-29T00:20:59;100469.47;;;12.32;72.61
31082;BME280;17737;52.586;13.284;2023-04-29T00:23:27;100465.00;;;12.39;72.61
31082;BME280;17737;52.586;13.284;2023-04-29T00:25:55;100469.56;;;12.39;72.67
31082;BME280;17737;52.586;13.284;2023-04-29T00:28:23;100468.97;;;12.43;72.78
31082;BME280;17737;52.586;13.284;2023-04-29T00:30:51;100465.09;;;12.46;72.25
31082;BME280;17737;52.586;13.284;2023-04-29T00:33:19;100470.47;;;12.31;72.81
31082;BME280;17737;52.586;13.284;2023-04-29T00:35:49;100466.09;;;12.30;72.88
31082;BME280;17737;52.586;13.284;2023-04-29T00:38:17;100466.03;;;12.24;73.06
31082;BME280;17737;52.586;13.284;2023-04-29T00:40:47;100473.44;;;12.36;72.80
31082;BME280;17737;52.586;13.284;2023-04-29T00:43:15;100474.13;;;12.38;73.00
31082;BME280;17737;52.586;13.284;2023-04-29T00:45:43;100474.03;;;12.46;72.54
31082;BME280;17737;52.586;13.284;2023-04-29T00:48:11;100474.13;;;12.38;72.77
31082;BME280;17737;52.586;13.284;2023-04-29T00:50:40;100461.75;;;12.29;73.14
31082;BME280;17737;52.586;13.284;2023-04-29T00:53:10;100459.38;;;12.26;73.33
31082;BME280;17737;52.586;13.284;2023-04-29T00:55:39;100460.25;;;12.27;73.37
31082;BME280;17737;52.586;13.284;2023-04-29T00:58:09;100453.31;;;12.24;73.27
31082;BME280;17737;52.586;13.284;2023-04-29T01:00:37;100443.38;;;12.25;74.36
31082;BME280;17737;52.586;13.284;2023-04-29T01:03:07;100444.28;;;12.02;77.04
31082;BME280;17737;52.586;13.284;2023-04-29T01:05:36;100449.59;;;11.81;78.74
31082;BME280;17737;52.586;13.284;2023-04-29T01:08:15;100455.97;;;11.66;81.19
31082;BME280;17737;52.586;13.284;2023-04-29T01:11:02;100463.25;;;11.57;81.17
31082;BME280;17737;52.586;13.284;2023-04-29T01:13:41;100475.53;;;11.60;81.17
31082;BME280;17737;52.586;13.284;2023-04-29T01:16:20;100473.94;;;11.51;81.97
31082;BME280;17737;52.586;13.284;2023-04-29T01:18:54;100473.22;;;11.57;81.43
31082;BME280;17737;52.586;13.284;2023-04-29T01:21:25;100474.31;;;11.85;80.77
31082;BME280;17737;52.586;13.284;2023-04-29T01:23:55;100471.50;;;11.64;81.40
31082;BME280;17737;52.586;13.284;2023-04-29T01:26:23;100468.25;;;11.68;82.26
31082;BME280;17737;52.586;13.284;2023-04-29T01:28:55;100452.38;;;11.51;82.89
31082;BME280;17737;52.586;13.284;2023-04-29T01:31:31;100439.78;;;11.66;83.12
31082;BME280;17737;52.586;13.284;2023-04-29T01:34:08;100445.13;;;11.29;85.48
31082;BME280;17737;52.586;13.284;2023-04-29T01:36:46;100444.38;;;11.12;86.66
31082;BME280;17737;52.586;13.284;2023-04-29T01:39:27;100449.94;;;11.11;87.02
31082;BME280;17737;52.586;13.284;2023-04-29T01:42:09;100447.38;;;11.17;86.98
31082;BME280;17737;52.586;13.284;2023-04-29T01:44:46;100451.28;;;11.15;94.21
31082;BME280;17737;52.586;13.284;2023-04-29T01:47:17;100444.56;;;11.11;95.46
31082;BME280;17737;52.586;13.284;2023-04-29T01:49:47;100439.59;;;11.00;92.16
31082;BME280;17737;52.586;13.284;2023-04-29T01:52:16;100443.34;;;10.91;91.86
31082;BME280;17737;52.586;13.284;2023-04-29T01:54:45;100444.38;;;10.90;90.97
31082;BME280;17737;52.586;13.284;2023-04-29T01:57:13;100449.88;;;10.96;90.72
31082;BME280;17737;52.586;13.284;2023-04-29T01:59:42;100443.03;;;10.85;91.63
31082;BME280;17737;52.586;13.284;2023-04-29T02:02:10;100439.63;;;10.92;91.65
31082;BME280;17737;52.586;13.284;2023-04-29T02:04:40;100448.31;;;11.02;91.14
31082;BME280;17737;52.586;13.284;2023-04-29T02:07:09;100449.19;;;11.25;88.93
31082;BME280;17737;52.586;13.284;2023-04-29T02:09:37;100447.19;;;11.19;89.81
31082;BME280;17737;52.586;13.284;2023-04-29T02:12:06;100433.84;;;11.03;91.29
31082;BME280;17737;52.586;13.284;2023-04-29T02:14:34;100434.38;;;10.98;91.54
31082;BME280;17737;52.586;13.284;2023-04-29T02:17:03;100426.81;;;10.94;92.55
31082;BME280;17737;52.586;13.284;2023-04-29T02:19:31;100431.34;;;10.93;91.72
31082;BME280;17737;52.586;13.284;2023-04-29T02:21:59;100427.00;;;10.92;95.09
31082;BME280;17737;52.586;13.284;2023-04-29T02:24:27;100425.81;;;10.95;95.98
31082;BME280;17737;52.586;13.284;2023-04-29T02:26:55;100426.56;;;11.26;93.80
31082;BME280;17737;52.586;13.284;2023-04-29T02:29:25;100433.72;;;11.41;92.44
31082;BME280;17737;52.586;13.284;2023-04-29T02:31:55;100433.97;;;11.09;93.47
31082;BME280;17737;52.586;13.284;2023-04-29T02:34:23;100438.81;;;11.36;92.59
31082;BME280;17737;52.586;13.284;2023-04-29T02:36:51;100431.41;;;11.53;90.95
31082;BME280;17737;52.586;13.284;2023-04-29T02:39:19;100429.63;;;11.45;91.51
31082;BME280;17737;52.586;13.284;2023-04-29T02:41:47;100427.53;;;11.33;92.39
31082;BME280;17737;52.586;13.284;2023-04-29T02:44:15;100420.97;;;11.13;93.47
31082;BME280;17737;52.586;13.284;2023-04-29T02:46:44;100418.59;;;11.32;92.58
31082;BME280;17737;52.586;13.284;2023-04-29T02:49:13;100428.19;;;11.35;92.13
31082;BME280;17737;52.586;13.284;2023-04-29T02:51:41;100417.53;;;11.41;91.29
31082;BME280;17737;52.586;13.284;2023-04-29T02:54:09;100428.38;;;11.33;91.38
31082;BME280;17737;52.586;13.284;2023-04-29T02:56:37;100429.53;;;11.39;90.95
31082;BME280;17737;52.586;13.284;2023-04-29T02:59:05;100425.69;;;11.33;91.24
31082;BME280;17737;52.586;13.284;2023-04-29T03:01:33;100427.16;;;11.36;91.19
31082;BME280;17737;52.586;13.284;2023-04-29T03:04:03;100427.53;;;11.33;91.08
31082;BME280;17737;52.586;13.284;2023-04-29T03:06:31;100415.97;;;11.24;91.10
31082;BME280;17737;52.586;13.284;2023-04-29T03:09:00;100429.72;;;11.37;91.56
31082;BME280;17737;52.586;13.284;2023-04-29T03:11:28;100424.84;;;11.33;91.22
31082;BME280;17737;52.586;13.284;2023-04-29T03:13:56;100420.09;;;11.57;90.13
31082;BME280;17737;52.586;13.284;2023-04-29T03:16:24;100425.50;;;11.57;89.56
31082;BME280;17737;52.586;13.284;2023-04-29T03:18:52;100426.00;;;11.53;90.47
31082;BME280;17737;52.586;13.284;2023-04-29T03:21:21;100421.44;;;11.39;90.28
31082;BME280;17737;52.586;13.284;2023-04-29T03:23:50;100419.03;;;11.44;90.02
31082;BME280;17737;52.586;13.284;2023-04-29T03:26:18;100416.34;;;11.44;90.85
31082;BME280;17737;52.586;13.284;2023-04-29T03:28:48;100420.03;;;11.43;91.16
31082;BME280;17737;52.586;13.284;2023-04-29T03:31:16;100421.16;;;11.34;91.12
31082;BME280;17737;52.586;13.284;2023-04-29T03:33:46;100418.97;;;11.29;91.72
31082;BME280;17737;52.586;13.284;2023-04-29T03:36:14;100416.56;;;11.34;91.56
31082;BME280;17737;52.586;13.284;2023-04-29T03:38:43;100412.69;;;11.37;92.04
31082;BME280;17737;52.586;13.284;2023-04-29T03:41:11;100420.00;;;11.28;92.17
31082;BME280;17737;52.586;13.284;2023-04-29T03:43:39;100421.19;;;11.26;92.16
31082;BME280;17737;52.586;13.284;2023-04-29T03:46:09;100417.38;;;11.20;92.32
31082;BME280;17737;52.586;13.284;2023-04-29T03:48:37;100417.59;;;11.11;93.21
31082;BME280;17737;52.586;13.284;2023-04-29T03:51:06;100416.91;;;11.17;93.29
31082;BME280;17737;52.586;13.284;2023-04-29T03:53:34;100422.63;;;11.14;93.31
31082;BME280;17737;52.586;13.284;2023-04-29T03:56:04;100418.16;;;11.29;92.88
31082;BME280;17737;52.586;13.284;2023-04-29T03:58:33;100412.69;;;11.37;92.84
31082;BME280;17737;52.586;13.284;2023-04-29T04:01:00;100419.03;;;11.44;92.92
31082;BME280;17737;52.586;13.284;2023-04-29T04:03:29;100418.78;;;11.31;93.05
31082;BME280;17737;52.586;13.284;2023-04-29T04:05:58;100411.72;;;11.52;92.36
31082;BME280;17737;52.586;13.284;2023-04-29T04:08:26;100423.47;;;11.37;93.05
31082;BME280;17737;52.586;13.284;2023-04-29T04:10:54;100424.06;;;11.47;92.58
31082;BME280;17737;52.586;13.284;2023-04-29T04:13:29;100426.47;;;11.42;93.09
31082;BME280;17737;52.586;13.284;2023-04-29T04:15:57;100419.91;;;11.59;92.10
31082;BME280;17737;52.586;13.284;2023-04-29T04:18:25;100431.19;;;11.40;92.83
31082;BME280;17737;52.586;13.284;2023-04-29T04:20:53;100425.03;;;11.31;93.91
31082;BME280;17737;52.586;13.284;2023-04-29T04:23:21;100432.63;;;11.28;94.32
31082;BME280;17737;52.586;13.284;2023-04-29T04:25:49;100422.06;;;11.41;94.17
31082;BME280;17737;52.586;13.284;2023-04-29T04:28:18;100425.06;;;11.46;93.57
31082;BME280;17737;52.586;13.284;2023-04-29T04:30:48;100432.81;;;11.49;93.67
31082;BME280;17737;52.586;13.284;2023-04-29T04:33:16;100431.69;;;11.66;93.00
31082;BME280;17737;52.586;13.284;2023-04-29T04:35:44;100426.16;;;11.59;93.03
31082;BME280;17737;52.586;13.284;2023-04-29T04:38:12;100433.72;;;11.64;92.97
31082;BME280;17737;52.586;13.284;2023-04-29T04:40:40;100431.88;;;11.56;93.56
31082;BME280;17737;52.586;13.284;2023-04-29T04:43:09;100435.38;;;11.65;93.08
31082;BME280;17737;52.586;13.284;2023-04-29T04:45:36;100432.16;;;11.47;93.86
31082;BME280;17737;52.586;13.284;2023-04-29T04:48:06;100429.09;;;11.50;94.44
31082;BME280;17737;52.586;13.284;2023-04-29T04:50:34;100427.69;;;11.76;93.44
31082;BME280;17737;52.586;13.284;2023-04-29T04:53:02;100435.91;;;11.60;93.76
31082;BME280;17737;52.586;13.284;2023-04-29T04:55:30;100439.16;;;11.56;94.41
31082;BME280;17737;52.586;13.284;2023-04-29T04:57:58;100435.72;;;11.62;94.60
31082;BME280;17737;52.586;13.284;2023-04-29T05:00:27;100442.75;;;11.48;95.63
31082;BME280;17737;52.586;13.284;2023-04-29T05:02:55;100441.69;;;11.35;96.44
31082;BME280;17737;52.586;13.284;2023-04-29T05:05:24;100437.94;;;11.58;96.15
31082;BME280;17737;52.586;13.284;2023-04-29T05:07:52;100437.66;;;11.53;96.13
31082;BME280;17737;52.586;13.284;2023-04-29T05:10:20;100443.59;;;11.49;96.45
31082;BME280;17737;52.586;13.284;2023-04-29T05:12:51;100443.13;;;11.68;96.06
31082;BME280;17737;52.586;13.284;2023-04-29T05:15:19;100446.47;;;11.70;95.82
31082;BME280;17737;52.586;13.284;2023-04-29T05:17:47;100435.19;;;11.66;96.11
31082;BME280;17737;52.586;13.284;2023-04-29T05:20:16;100439.78;;;11.58;96.38
31082;BME280;17737;52.586;13.284;2023-04-29T05:22:45;100441.19;;;11.54;97.05
31082;BME280;17737;52.586;13.284;2023-04-29T05:25:13;100444.81;;;11.69;96.48
31082;BME280;17737;52.586;13.284;2023-04-29T05:27:41;100446.88;;;11.59;96.73
31082;BME280;17737;52.586;13.284;2023-04-29T05:30:10;100451.88;;;11.47;97.65
31082;BME280;17737;52.586;13.284;2023-04-29T05:32:38;100453.91;;;11.45;98.46
31082;BME280;17737;52.586;13.284;2023-04-29T05:35:07;100459.72;;;11.57;98.25
31082;BME280;17737;52.586;13.284;2023-04-29T05:37:35;100460.09;;;11.54;98.40
31082;BME280;17737;52.586;13.284;2023-04-29T05:40:06;100457.50;;;11.60;98.22
31082;BME280;17737;52.586;13.284;2023-04-29T05:42:35;100459.91;;;11.55;98.59
31082;BME280;17737;52.586;13.284;2023-04-29T05:45:04;100460.69;;;11.64;98.52
31082;BME280;17737;52.586;13.284;2023-04-29T05:47:42;100462.59;;;11.78;98.05
31082;BME280;17737;52.586;13.284;2023-04-29T05:50:10;100464.19;;;11.87;97.64
31082;BME280;17737;52.586;13.284;2023-04-29T05:52:38;100463.19;;;11.88;97.26
31082;BME280;17737;52.586;13.284;2023-04-29T05:55:08;100467.44;;;11.60;98.01
31082;BME280;17737;52.586;13.284;2023-04-29T05:57:36;100467.81;;;11.57;98.62
31082;BME280;17737;52.586;13.284;2023-04-29T06:00:05;100468.66;;;11.57;98.48
31082;BME280;17737;52.586;13.284;2023-04-29T06:02:34;100476.38;;;11.60;98.67
31082;BME280;17737;52.586;13.284;2023-04-29T06:05:20;100477.41;;;11.82;98.33
31082;BME280;17737;52.586;13.284;2023-04-29T06:07:49;100474.78;;;11.74;98.04
31082;BME280;17737;52.586;13.284;2023-04-29T06:10:18;100476.09;;;11.78;98.04
31082;BME280;17737;52.586;13.284;2023-04-29T06:12:46;100487.31;;;11.67;98.03
31082;BME280;17737;52.586;13.284;2023-04-29T06:15:16;100488.06;;;11.53;98.52
31082;BME280;17737;52.586;13.284;2023-04-29T06:17:44;100492.00;;;11.73;98.61
31082;BME280;17737;52.586;13.284;2023-04-29T06:20:12;100479.94;;;11.61;98.60
31082;BME280;17737;52.586;13.284;2023-04-29T06:22:42;100490.59;;;11.54;98.87
31082;BME280;17737;52.586;13.284;2023-04-29T06:25:10;100492.75;;;11.59;98.88
31082;BME280;17737;52.586;13.284;2023-04-29T06:27:40;100496.66;;;11.56;98.70
31082;BME280;17737;52.586;13.284;2023-04-29T06:30:09;100503.06;;;11.55;98.58
31082;BME280;17737;52.586;13.284;2023-04-29T06:32:38;100500.44;;;11.47;99.05
31082;BME280;17737;52.586;13.284;2023-04-29T06:35:06;100506.19;;;11.44;99.21
31082;BME280;17737;52.586;13.284;2023-04-29T06:37:35;100505.47;;;11.50;99.12
31082;BME280;17737;52.586;13.284;2023-04-29T06:40:05;100507.03;;;11.45;98.76
31082;BME280;17737;52.586;13.284;2023-04-29T06:42:33;100511.09;;;11.41;99.21
31082;BME280;17737;52.586;13.284;2023-04-29T06:45:04;100514.81;;;11.40;99.42
31082;BME280;17737;52.586;13.284;2023-04-29T06:47:33;100525.91;;;11.45;99.30
31082;BME280;17737;52.586;13.284;2023-04-29T06:50:01;100526.94;;;11.44;99.03
31082;BME280;17737;52.586;13.284;2023-04-29T06:52:29;100531.06;;;11.32;98.73
31082;BME280;17737;52.586;13.284;2023-04-29T06:54:57;100537.63;;;11.37;98.96
31082;BME280;17737;52.586;13.284;2023-04-29T06:57:25;100538.59;;;11.36;98.45
31082;BME280;17737;52.586;13.284;2023-04-29T06:59:53;100541.84;;;11.32;98.03
31082;BME280;17737;52.586;13.284;2023-04-29T07:02:22;100539.84;;;11.26;98.51
31082;BME280;17737;52.586;13.284;2023-04-29T07:04:51;100548.56;;;11.36;98.34
31082;BME280;17737;52.586;13.284;2023-04-29T07:07:19;100548.41;;;11.37;97.95
31082;BME280;17737;52.586;13.284;2023-04-29T07:09:47;100546.94;;;11.27;97.81
31082;BME280;17737;52.586;13.284;2023-04-29T07:12:17;100551.19;;;11.21;97.59
31082;BME280;17737;52.586;13.284;2023-04-29T07:14:45;100553.47;;;11.32;97.58
31082;BME280;17737;52.586;13.284;2023-04-29T07:17:13;100559.88;;;11.31;97.27
31082;BME280;17737;52.586;13.284;2023-04-29T07:19:46;100566.44;;;11.37;97.03
31082;BME280;17737;52.586;13.284;2023-04-29T07:22:14;100565.72;;;11.43;96.58
31082;BME280;17737;52.586;13.284;2023-04-29T07:24:42;100563.38;;;11.40;96.02
31082;BME280;17737;52.586;13.284;2023-04-29T07:27:10;100570.28;;;11.42;96.54
31082;BME280;17737;52.586;13.284;2023-04-29T07:29:38;100573.69;;;11.67;96.11
31082;BME280;17737;52.586;13.284;2023-04-29T07:32:06;100573.00;;;11.65;94.22
31082;BME280;17737;52.586;13.284;2023-04-29T07:34:34;100581.78;;;11.67;94.21
31082;BME280;17737;52.586;13.284;2023-04-29T07:37:04;100587.88;;;11.61;94.18
31082;BME280;17737;52.586;13.284;2023-04-29T07:39:32;100590.91;;;11.58;94.12
31082;BME280;17737;52.586;13.284;2023-04-29T07:42:01;100594.56;;;11.73;94.42
31082;BME280;17737;52.586;13.284;2023-04-29T07:44:30;100596.66;;;11.55;93.04
31082;BME280;17737;52.586;13.284;2023-04-29T07:46:58;100608.50;;;11.54;93.49
31082;BME280;17737;52.586;13.284;2023-04-29T07:49:26;100609.31;;;11.54;93.02
31082;BME280;17737;52.586;13.284;2023-04-29T07:51:54;100617.00;;;11.35;93.30
31082;BME280;17737;52.586;13.284;2023-04-29T07:54:23;100618.66;;;11.44;93.19
31082;BME280;17737;52.586;13.284;2023-04-29T07:56:51;100631.56;;;11.56;92.61
31082;BME280;17737;52.586;13.284;2023-04-29T07:59:19;100635.66;;;11.44;92.70
31082;BME280;17737;52.586;13.284;2023-04-29T08:01:47;100633.16;;;11.43;91.86
31082;BME280;17737;52.586;13.284;2023-04-29T08:04:15;100642.16;;;11.35;92.92
31082;BME280;17737;52.586;13.284;2023-04-29T08:06:44;100644.31;;;11.40;92.73
31082;BME280;17737;52.586;13.284;2023-04-29T08:09:12;100645.16;;;11.40;93.21
31082;BME280;17737;52.586;13.284;2023-04-29T08:11:42;100652.03;;;11.43;92.97
31082;BME280;17737;52.586;13.284;2023-04-29T08:14:10;100659.09;;;11.52;93.34
31082;BME280;17737;52.586;13.284;2023-04-29T08:16:38;100658.22;;;11.51;92.33
31082;BME280;17737;52.586;13.284;2023-04-29T08:19:06;100665.31;;;11.52;92.87
31082;BME280;17737;52.586;13.284;2023-04-29T08:21:35;100670.22;;;11.49;92.11
31082;BME280;17737;52.586;13.284;2023-04-29T08:24:03;100671.06;;;11.49;91.66
31082;BME280;17737;52.586;13.284;2023-04-29T08:26:31;100675.97;;;11.46;92.38
31082;BME280;17737;52.586;13.284;2023-04-29T08:29:00;100682.75;;;11.42;91.83
31082;BME280;17737;52.586;13.284;2023-04-29T08:31:28;100689.63;;;11.44;92.54
31082;BME280;17737;52.586;13.284;2023-04-29T08:33:57;100695.75;;;11.38;92.64
31082;BME280;17737;52.586;13.284;2023-04-29T08:36:25;100691.50;;;11.44;92.76
31082;BME280;17737;52.586;13.284;2023-04-29T08:38:54;100701.28;;;11.45;92.34
31082;BME280;17737;52.586;13.284;2023-04-29T08:41:22;100699.56;;;11.52;91.82
31082;BME280;17737;52.586;13.284;2023-04-29T08:43:50;100703.75;;;11.54;91.55
31082;BME280;17737;52.586;13.284;2023-04-29T08:46:20;100715.78;;;11.44;90.81
31082;BME280;17737;52.586;13.284;2023-04-29T08:48:51;100718.44;;;11.52;91.49
31082;BME280;17737;52.586;13.284;2023-04-29T08:51:21;100720.25;;;11.67;90.20
31082;BME280;17737;52.586;13.284;2023-04-29T08:53:50;100721.19;;;11.44;90.61
31082;BME280;17737;52.586;13.284;2023-04-29T08:56:18;100724.19;;;11.49;90.97
31082;BME280;17737;52.586;13.284;2023-04-29T08:58:49;100738.69;;;11.48;90.91
31082;BME280;17737;52.586;13.284;2023-04-29T09:01:21;100733.00;;;11.35;91.65
31082;BME280;17737;52.586;13.284;2023-04-29T09:03:57;100743.09;;;11.41;91.04
31082;BME280;17737;52.586;13.284;2023-04-29T09:06:36;100749.16;;;11.43;91.47
31082;BME280;17737;52.586;13.284;2023-04-29T09:09:04;100755.28;;;11.29;90.23
31082;BME280;17737;52.586;13.284;2023-04-29T09:11:33;100758.34;;;11.18;90.05
31082;BME280;17737;52.586;13.284;2023-04-29T09:14:03;100765.09;;;11.22;90.67
31082;BME280;17737;52.586;13.284;2023-04-29T09:16:34;100763.59;;;11.11;90.88
31082;BME280;17737;52.586;13.284;2023-04-29T09:19:03;100777.34;;;11.32;90.27
31082;BME280;17737;52.586;13.284;2023-04-29T09:21:31;100775.31;;;11.34;90.19
31082;BME280;17737;52.586;13.284;2023-04-29T09:24:01;100772.06;;;11.55;87.97
31082;BME280;17737;52.586;13.284;2023-04-29T09:26:39;100788.94;;;11.41;88.43
31082;BME280;17737;52.586;13.284;2023-04-29T09:29:10;100782.38;;;11.43;88.92
31082;BME280;17737;52.586;13.284;2023-04-29T09:31:41;100792.81;;;11.46;88.37
31082;BME280;17737;52.586;13.284;2023-04-29T09:34:10;100789.94;;;11.56;87.86
31082;BME280;17737;52.586;13.284;2023-04-29T09:36:42;100799.75;;;11.49;86.86
31082;BME280;17737;52.586;13.284;2023-04-29T09:39:13;100789.78;;;11.57;87.86
31082;BME280;17737;52.586;13.284;2023-04-29T09:41:57;100807.34;;;11.45;86.63
31082;BME280;17737;52.586;13.284;2023-04-29T09:44:29;100802.72;;;11.62;86.48
31082;BME280;17737;52.586;13.284;2023-04-29T09:47:03;100812.84;;;11.60;85.73
31082;BME280;17737;52.586;13.284;2023-04-29T09:49:34;100808.97;;;11.70;85.69
31082;BME280;17737;52.586;13.284;2023-04-29T09:52:06;100817.56;;;11.58;85.18
31082;BME280;17737;52.586;13.284;2023-04-29T09:54:37;100827.19;;;11.60;85.28
31082;BME280;17737;52.586;13.284;2023-04-29T09:57:07;100820.06;;;11.83;84.59
31082;BME280;17737;52.586;13.284;2023-04-29T09:59:38;100826.56;;;11.97;84.53
31082;BME280;17737;52.586;13.284;2023-04-29T10:02:12;100839.94;;;11.98;83.90
31082;BME280;17737;52.586;13.284;2023-04-29T10:04:44;100843.44;;;11.99;84.11
31082;BME280;17737;52.586;13.284;2023-04-29T10:07:14;100844.84;;;11.95;84.42
31082;BME280;17737;52.586;13.284;2023-04-29T10:09:44;100838.94;;;11.91;83.45
31082;BME280;17737;52.586;13.284;2023-04-29T10:12:14;100847.69;;;11.93;83.29
31082;BME280;17737;52.586;13.284;2023-04-29T10:14:47;100845.47;;;11.97;83.15
31082;BME280;17737;52.586;13.284;2023-04-29T10:17:29;100848.13;;;12.13;81.74
31082;BME280;17737;52.586;13.284;2023-04-29T10:20:03;100847.91;;;12.23;82.06
31082;BME280;17737;52.586;13.284;2023-04-29T10:22:35;100846.34;;;12.28;81.35
31082;BME280;17737;52.586;13.284;2023-04-29T10:25:12;100856.72;;;12.47;80.64
31082;BME280;17737;52.586;13.284;2023-04-29T10:27:42;100850.25;;;12.56;79.95
31082;BME280;17737;52.586;13.284;2023-04-29T10:30:12;100850.56;;;12.61;79.86
31082;BME280;17737;52.586;13.284;2023-04-29T10:32:43;100860.09;;;12.49;80.07
31082;BME280;17737;52.586;13.284;2023-04-29T10:35:16;100868.88;;;12.51;79.53
31082;BME280;17737;52.586;13.284;2023-04-29T10:37:46;100876.69;;;12.46;79.67
31082;BME280;17737;52.586;13.284;2023-04-29T10:40:16;100870.13;;;12.41;79.39
31082;BME280;17737;52.586;13.284;2023-04-29T10:42:49;100880.53;;;12.74;78.64
31082;BME280;17737;52.586;13.284;2023-04-29T10:45:23;100878.31;;;13.08;77.19
31082;BME280;17737;52.586;13.284;2023-04-29T10:48:11;100874.88;;;13.52;75.24
31082;BME280;17737;52.586;13.284;2023-04-29T10:51:02;100880.13;;;13.16;74.25
31082;BME280;17737;52.586;13.284;2023-04-29T10:53:31;100880.44;;;12.37;76.53
31082;BME280;17737;52.586;13.284;2023-04-29T10:56:07;100890.00;;;12.48;76.53
31082;BME280;17737;52.586;13.284;2023-04-29T10:58:42;100887.31;;;12.40;76.83
31082;BME280;17737;52.586;13.284;2023-04-29T11:01:13;100888.41;;;12.23;76.18
31082;BME280;17737;52.586;13.284;2023-04-29T11:03:55;100897.22;;;12.55;76.64
31082;BME280;17737;52.586;13.284;2023-04-29T11:06:39;100895.00;;;13.35;74.57
31082;BME280;17737;52.586;13.284;2023-04-29T11:09:10;100899.88;;;13.91;71.84
31082;BME280;17737;52.586;13.284;2023-04-29T11:11:41;100894.81;;;14.02;70.21
31082;BME280;17737;52.586;13.284;2023-04-29T11:14:23;100902.66;;;13.97;71.05
31082;BME280;17737;52.586;13.284;2023-04-29T11:16:54;100905.00;;;13.86;70.48
31082;BME280;17737;52.586;13.284;2023-04-29T11:19:30;100905.59;;;13.59;71.59
31082;BME280;17737;52.586;13.284;2023-04-29T11:22:08;100914.13;;;13.70;71.57
31082;BME280;17737;52.586;13.284;2023-04-29T11:24:51;100907.09;;;13.76;71.62
31082;BME280;17737;52.586;13.284;2023-04-29T11:27:22;100913.78;;;14.17;70.67
31082;BME280;17737;52.586;13.284;2023-04-29T11:29:53;100913.41;;;13.91;70.45
31082;BME280;17737;52.586;13.284;2023-04-29T11:32:25;100920.22;;;14.01;70.49
31082;BME280;17737;52.586;13.284;2023-04-29T11:35:06;100917.97;;;14.19;68.93
31082;BME280;17737;52.586;13.284;2023-04-29T11:37:35;100924.00;;;14.29;69.40
31082;BME280;17737;52.586;13.284;2023-04-29T11:40:05;100924.22;;;14.64;67.89
31082;BME280;17737;52.586;13.284;2023-04-29T11:42:34;100921.53;;;14.49;67.50
31082;BME280;17737;52.586;13.284;2023-04-29T11:45:03;100927.22;;;13.96;68.68
31082;BME280;17737;52.586;13.284;2023-04-29T11:47:32;100933.00;;;14.22;69.60
31082;BME280;17737;52.586;13.284;2023-04-29T11:50:03;100936.13;;;14.04;69.50
31082;BME280;17737;52.586;13.284;2023-04-29T11:52:35;100943.91;;;13.70;70.17
31082;BME280;17737;52.586;13.284;2023-04-29T11:55:05;100945.78;;;13.70;70.42
31082;BME280;17737;52.586;13.284;2023-04-29T11:57:35;100945.13;;;13.45;71.18
31082;BME280;17737;52.586;13.284;2023-04-29T12:00:04;100944.97;;;13.47;71.38
31082;BME280;17737;52.586;13.284;2023-04-29T12:02:35;100951.47;;;13.38;72.10
31082;BME280;17737;52.586;13.284;2023-04-29T12:05:06;100948.28;;;13.11;73.50
31082;BME280;17737;52.586;13.284;2023-04-29T12:07:35;100967.22;;;13.11;72.80
31082;BME280;17737;52.586;13.284;2023-04-29T12:10:07;100970.94;;;13.10;73.21
31082;BME280;17737;52.586;13.284;2023-04-29T12:12:37;100968.56;;;13.38;72.49
31082;BME280;17737;52.586;13.284;2023-04-29T12:15:08;100976.03;;;13.73;70.87
31082;BME280;17737;52.586;13.284;2023-04-29T12:17:38;100971.19;;;14.35;69.13
31082;BME280;17737;52.586;13.284;2023-04-29T12:20:09;100972.22;;;14.34;68.45
31082;BME280;17737;52.586;13.284;2023-04-29T12:22:38;100969.31;;;14.35;68.06
31082;BME280;17737;52.586;13.284;2023-04-29T12:25:07;100978.28;;;14.36;68.88
31082;BME280;17737;52.586;13.284;2023-04-29T12:27:38;100976.19;;;14.09;67.31
31082;BME280;17737;52.586;13.284;2023-04-29T12:30:09;100978.44;;;14.20;66.99
31082;BME280;17737;52.586;13.284;2023-04-29T12:32:38;100983.31;;;14.24;67.69
31082;BME280;17737;52.586;13.284;2023-04-29T12:35:14;100984.13;;;14.10;67.87
31082;BME280;17737;52.586;13.284;2023-04-29T12:37:47;100982.50;;;14.01;67.86
31082;BME280;17737;52.586;13.284;2023-04-29T12:40:16;100994.31;;;14.08;68.55
31082;BME280;17737;52.586;13.284;2023-04-29T12:42:46;100990.25;;;14.42;67.88
31082;BME280;17737;52.586;13.284;2023-04-29T12:45:28;100996.16;;;14.95;66.92
31082;BME280;17737;52.586;13.284;2023-04-29T12:47:58;100998.63;;;14.90;65.78
31082;BME280;17737;52.586;13.284;2023-04-29T12:50:30;100991.53;;;14.89;66.11
31082;BME280;17737;52.586;13.284;2023-04-29T12:53:00;100990.66;;;15.03;65.56
31082;BME280;17737;52.586;13.284;2023-04-29T12:55:31;100995.03;;;15.04;65.30